Luthersville, Georgia
Current Conditions -  °F | °C
As of 2:35 AM on Wednesday 26 Nov 2014 (Local Time) from KCCO Reporting Station
Broken Clouds Broken Clouds  
Wind Chill: 49°   Ceiling: 9500
Heat Index: 49°   Visibility: 10mi
Dew Point: 37°   Wind: 0mph
Humidity: 63%   Direction: NA
Pressure: 30"   Gusts: NA
Location:  33.21°N, 84.74°W
Report Text: KCCO 260735Z AUTO 00000KT 10SM BKN095 BKN110 09/03 A3000 RMK AO2 T00930025
Loading
Personal Weather Stations






























Interactive Weather Map New forecast layout! Learn more

10-Day Weather Forecast

Advertisements
Track Severe Weather on mobile